Time;durP1;ratioP1;P1;durP2;ratioP2;P2;SDS_P1;SDS_P2;PMS_P1;PMS_P2;Temp;Humidity;BMP_temperature;BMP_pressure;BME280_temperature;BME280_humidity;BME280_pressure;Samples;Min_cycle;Max_cycle;Signal;HPM_P1;HPM_P2
2022/04/28 00:00:57;;;;;;;13.80;5.50;;;;;;;9.39;59.97;102923.88;5067992;28;20032;-52
2022/04/28 00:03:23;;;;;;;12.98;4.70;;;;;;;9.38;59.73;102927.25;5062254;28;20043;-51
2022/04/28 00:05:48;;;;;;;12.43;4.45;;;;;;;9.44;59.89;102920.72;5067803;28;20028;-52
2022/04/28 00:08:14;;;;;;;12.07;4.85;;;;;;;9.36;59.69;102918.56;5068578;28;20405;-52
2022/04/28 00:10:40;;;;;;;13.00;4.70;;;;;;;9.30;60.10;102925.84;5067533;28;20039;-49
2022/04/28 00:13:07;;;;;;;11.80;4.65;;;;;;;9.38;60.01;102931.47;5068737;28;20432;-52
2022/04/28 00:15:33;;;;;;;10.90;4.70;;;;;;;9.27;60.20;102929.88;5067077;28;20032;-52
2022/04/28 00:17:59;;;;;;;10.88;4.55;;;;;;;9.31;60.07;102939.59;5065632;28;20404;-48
2022/04/28 00:20:24;;;;;;;11.00;4.95;;;;;;;9.20;60.38;102935.41;5066778;28;20032;-51
2022/04/28 00:22:49;;;;;;;14.25;5.03;;;;;;;9.24;59.95;102938.28;5063779;28;20043;-48
2022/04/28 00:25:15;;;;;;;12.00;5.07;;;;;;;9.29;60.35;102925.75;5060305;28;20033;-51
2022/04/28 00:27:40;;;;;;;12.27;5.32;;;;;;;9.22;60.08;102931.25;5062794;28;20028;-52
2022/04/28 00:30:07;;;;;;;11.98;4.88;;;;;;;9.15;60.61;102927.38;5061376;28;20484;-48
2022/04/28 00:32:33;;;;;;;9.95;4.90;;;;;;;9.11;60.80;102931.44;5062169;28;20039;-52
2022/04/28 00:34:59;;;;;;;10.98;5.15;;;;;;;9.09;61.08;102930.44;5066348;28;20461;-52
2022/04/28 00:37:25;;;;;;;13.18;5.32;;;;;;;9.02;60.79;102935.06;5064503;28;20079;-53
2022/04/28 00:39:51;;;;;;;10.25;5.05;;;;;;;9.04;61.00;102930.91;5062134;28;20542;-52
2022/04/28 00:42:18;;;;;;;9.48;4.95;;;;;;;9.01;61.08;102926.47;5064154;28;21294;-51
2022/04/28 00:44:43;;;;;;;14.55;5.25;;;;;;;9.00;61.26;102916.13;5064980;28;20040;-52
2022/04/28 00:47:10;;;;;;;10.38;5.20;;;;;;;8.99;61.39;102932.31;5063957;28;20032;-52
2022/04/28 00:52:21;;;;;;;11.05;4.75;;;;;;;8.92;61.24;102923.31;5067464;28;20048;-51
2022/04/28 00:54:49;;;;;;;13.35;5.20;;;;;;;8.81;61.64;102922.56;5066127;28;20384;-52
2022/04/28 00:57:15;;;;;;;12.88;5.28;;;;;;;8.87;61.24;102927.22;5063716;28;20043;-52
2022/04/28 00:59:41;;;;;;;13.27;5.38;;;;;;;8.90;61.78;102929.09;5059127;28;20075;-51
2022/04/28 01:02:10;;;;;;;11.30;5.35;;;;;;;8.84;61.57;102924.44;5064675;28;20396;-51
2022/04/28 01:04:37;;;;;;;12.05;5.85;;;;;;;8.74;61.89;102925.50;5068111;28;20024;-52
2022/04/28 01:07:03;;;;;;;10.82;5.00;;;;;;;8.78;61.80;102924.03;5067055;28;20044;-49
2022/04/28 01:09:29;;;;;;;16.02;5.65;;;;;;;8.75;61.86;102922.16;5063194;28;20442;-51
2022/04/28 01:11:54;;;;;;;12.50;5.30;;;;;;;8.74;62.18;102929.75;5065804;28;20119;-51
2022/04/28 01:14:20;;;;;;;10.70;5.35;;;;;;;8.69;61.86;102923.41;5067642;28;20028;-52
2022/04/28 01:16:45;;;;;;;9.85;5.28;;;;;;;8.64;62.21;102922.22;5066836;28;20480;-52
2022/04/28 01:19:11;;;;;;;13.88;5.50;;;;;;;8.60;62.24;102927.09;5060068;28;20485;-52
2022/04/28 01:21:36;;;;;;;14.68;5.85;;;;;;;8.57;62.17;102929.47;5065156;28;20048;-52
2022/04/28 01:24:03;;;;;;;11.65;5.22;;;;;;;8.55;62.40;102931.06;5067927;28;20036;-51
2022/04/28 01:26:28;;;;;;;11.20;5.53;;;;;;;8.48;62.31;102928.81;5062756;28;20393;-52
2022/04/28 01:28:55;;;;;;;13.82;5.65;;;;;;;8.46;62.88;102929.53;5067264;28;20048;-52
2022/04/28 01:31:20;;;;;;;12.05;5.60;;;;;;;8.46;62.33;102934.66;5067093;28;20032;-52
2022/04/28 01:33:46;;;;;;;13.18;5.72;;;;;;;8.46;63.13;102930.41;5063206;28;20032;-53
2022/04/28 01:36:11;;;;;;;13.30;5.68;;;;;;;8.41;62.64;102930.88;5066387;28;20038;-52
2022/04/28 01:38:36;;;;;;;11.40;4.97;;;;;;;8.30;62.99;102932.63;5059969;28;20052;-46
2022/04/28 01:41:02;;;;;;;11.75;5.55;;;;;;;8.30;63.15;102928.41;5065204;28;20067;-50
2022/04/28 01:43:27;;;;;;;12.32;5.43;;;;;;;8.28;63.19;102934.22;5064111;28;20491;-49
2022/04/28 01:45:53;;;;;;;10.70;5.60;;;;;;;8.31;63.19;102924.16;5063631;28;20039;-50
2022/04/28 01:48:18;;;;;;;10.55;5.18;;;;;;;8.33;62.76;102932.88;5066488;28;20032;-51
2022/04/28 01:56:11;;;;;;;14.20;5.30;;;;;;;8.35;62.99;102915.91;5062519;28;20416;-50
2022/04/28 01:58:37;;;;;;;12.07;5.57;;;;;;;8.30;62.88;102919.81;5062207;28;20033;-51
2022/04/28 02:01:02;;;;;;;11.20;5.15;;;;;;;8.29;63.09;102926.63;5067227;28;20396;-52
2022/04/28 02:03:28;;;;;;;15.02;5.65;;;;;;;8.22;63.22;102926.97;5065389;28;20090;-52
2022/04/28 02:05:54;;;;;;;13.07;5.22;;;;;;;8.24;63.71;102927.09;5063660;28;20033;-52
2022/04/28 02:08:19;;;;;;;11.80;5.57;;;;;;;8.20;63.85;102925.09;5066530;28;20116;-51
2022/04/28 02:10:44;;;;;;;14.98;5.68;;;;;;;8.21;63.58;102924.31;5062255;28;20059;-50
2022/04/28 02:13:10;;;;;;;17.27;5.47;;;;;;;8.26;63.36;102926.44;5065481;28;20499;-51
2022/04/28 02:15:36;;;;;;;12.30;5.30;;;;;;;8.28;63.41;102931.66;5061575;28;20032;-49
2022/04/28 02:18:02;;;;;;;17.33;5.65;;;;;;;8.25;63.66;102931.41;5061804;28;20387;-52
2022/04/28 02:20:27;;;;;;;10.13;5.45;;;;;;;8.21;63.62;102925.22;5063592;28;20028;-46
2022/04/28 02:22:52;;;;;;;12.48;5.65;;;;;;;8.19;63.63;102931.00;5065571;28;20118;-51
2022/04/28 02:25:18;;;;;;;16.75;5.82;;;;;;;8.19;63.57;102928.44;5065927;28;20075;-52
2022/04/28 02:27:43;;;;;;;16.75;5.75;;;;;;;8.22;63.48;102924.41;5062450;28;20040;-49
2022/04/28 02:30:09;;;;;;;11.75;5.90;;;;;;;8.24;63.44;102934.78;5065057;28;20052;-50
2022/04/28 02:35:19;;;;;;;12.00;5.90;;;;;;;8.22;63.69;102937.22;5062967;28;20063;-49
2022/04/28 02:37:44;;;;;;;14.60;5.60;;;;;;;8.22;64.15;102938.91;5067478;28;20068;-51
2022/04/28 02:40:10;;;;;;;14.10;5.88;;;;;;;8.13;63.80;102935.69;5062149;28;20090;-47
2022/04/28 02:42:35;;;;;;;13.90;5.82;;;;;;;8.10;64.38;102933.81;5062324;28;20037;-51
2022/04/28 02:45:01;;;;;;;12.57;5.68;;;;;;;8.16;64.12;102934.25;5064269;28;20044;-51
2022/04/28 02:47:26;;;;;;;15.90;6.28;;;;;;;8.10;64.01;102933.81;5061776;28;20478;-49
2022/04/28 02:49:52;;;;;;;12.60;6.05;;;;;;;8.08;64.56;102925.13;5063931;28;20044;-51
2022/04/28 02:52:17;;;;;;;14.40;6.30;;;;;;;8.03;64.33;102929.91;5064807;28;20190;-49
2022/04/28 02:54:42;;;;;;;11.50;5.97;;;;;;;7.96;64.79;102930.28;5064960;28;20043;-52
2022/04/28 02:57:08;;;;;;;12.70;5.88;;;;;;;7.95;64.52;102922.47;5063189;28;20040;-51
2022/04/28 02:59:33;;;;;;;15.10;6.43;;;;;;;7.90;64.78;102922.16;5062620;28;20062;-51
2022/04/28 03:01:58;;;;;;;12.05;5.97;;;;;;;7.87;64.93;102927.03;5065128;28;20045;-51
2022/04/28 03:04:25;;;;;;;15.45;7.38;;;;;;;7.88;65.07;102925.34;5064936;28;20033;-51
2022/04/28 03:12:18;;;;;;;17.20;6.63;;;;;;;7.81;65.58;102924.03;5063290;28;20043;-51
2022/04/28 03:14:44;;;;;;;15.18;6.70;;;;;;;7.71;65.77;102930.19;5058413;28;20025;-52
2022/04/28 03:17:09;;;;;;;17.10;7.05;;;;;;;7.82;65.17;102932.59;5061961;28;20040;-52
2022/04/28 03:19:35;;;;;;;14.50;6.45;;;;;;;7.68;65.43;102924.81;5060091;28;20116;-48
2022/04/28 03:22:00;;;;;;;12.20;6.70;;;;;;;7.71;66.12;102930.19;5061190;28;20489;-50
2022/04/28 03:24:26;;;;;;;15.25;6.50;;;;;;;7.73;65.74;102935.41;5065133;28;20041;-51
2022/04/28 03:26:51;;;;;;;13.65;6.68;;;;;;;7.69;65.71;102926.59;5061605;28;20040;-52
2022/04/28 03:29:16;;;;;;;14.80;6.88;;;;;;;7.65;66.17;102937.41;5066856;28;20065;-52
2022/04/28 03:31:42;;;;;;;13.27;6.93;;;;;;;7.67;65.98;102937.53;5063918;28;20036;-51
2022/04/28 03:34:07;;;;;;;15.57;7.25;;;;;;;7.66;65.91;102938.31;5065033;28;20032;-49
2022/04/28 03:36:51;;;;;;;19.55;7.03;;;;;;;7.60;66.06;102932.72;5062966;28;20060;-52
2022/04/28 03:39:16;;;;;;;16.10;6.40;;;;;;;7.60;66.29;102935.28;5063805;28;20064;-50
2022/04/28 03:41:42;;;;;;;12.52;6.75;;;;;;;7.55;66.39;102932.38;5064097;28;20040;-47
2022/04/28 03:44:09;;;;;;;16.45;6.68;;;;;;;7.55;66.59;102934.94;5063160;28;20048;-51
2022/04/28 03:46:35;;;;;;;14.98;6.35;;;;;;;7.56;66.64;102936.72;5066707;28;20058;-51
2022/04/28 03:49:00;;;;;;;11.80;6.60;;;;;;;7.54;66.54;102930.63;5066849;28;20045;-52
2022/04/28 03:51:25;;;;;;;14.88;6.88;;;;;;;7.56;66.37;102933.28;5065578;28;20093;-52
2022/04/28 03:53:51;;;;;;;15.95;7.00;;;;;;;7.50;66.82;102932.03;5061100;28;20040;-52
2022/04/28 03:56:16;;;;;;;17.80;6.70;;;;;;;7.51;66.89;102932.94;5065762;28;20044;-51
2022/04/28 03:58:42;;;;;;;15.32;7.10;;;;;;;7.55;67.09;102929.84;5063042;28;20182;-50
2022/04/28 04:01:08;;;;;;;14.50;7.07;;;;;;;7.55;66.64;102936.63;5056322;28;20033;-49
2022/04/28 04:03:33;;;;;;;12.75;7.20;;;;;;;7.52;66.46;102942.38;5062333;28;20021;-52
2022/04/28 04:05:59;;;;;;;11.32;6.57;;;;;;;7.45;66.35;102941.06;5061595;28;20036;-49
2022/04/28 04:08:24;;;;;;;21.27;7.72;;;;;;;7.43;66.55;102934.94;5063652;28;20024;-52
2022/04/28 04:10:50;;;;;;;17.38;7.30;;;;;;;7.45;66.87;102937.59;5063780;28;20216;-49
2022/04/28 04:13:15;;;;;;;17.52;7.38;;;;;;;7.39;67.03;102945.72;5062392;28;20051;-51
2022/04/28 04:15:41;;;;;;;14.35;7.05;;;;;;;7.43;67.28;102945.19;5064987;28;20078;-52
2022/04/28 04:18:08;;;;;;;19.95;7.43;;;;;;;7.33;67.17;102952.94;5066706;28;20067;-50
2022/04/28 04:20:34;;;;;;;17.90;7.30;;;;;;;7.30;67.66;102947.59;5068399;28;20063;-51
2022/04/28 04:23:00;;;;;;;14.07;7.00;;;;;;;7.29;67.89;102955.19;5063265;28;20036;-50
2022/04/28 04:25:25;;;;;;;12.90;6.88;;;;;;;7.22;67.50;102948.72;5062967;28;20459;-52
2022/04/28 04:27:50;;;;;;;14.15;6.63;;;;;;;7.25;67.81;102948.94;5064554;28;20040;-50
2022/04/28 04:33:00;;;;;;;17.48;7.60;;;;;;;7.32;67.86;102948.59;5068882;28;20074;-51
2022/04/28 04:35:26;;;;;;;15.60;7.38;;;;;;;7.32;67.90;102948.59;5065703;28;20054;-52
2022/04/28 04:37:54;;;;;;;14.65;7.43;;;;;;;7.34;68.02;102949.63;5067214;28;20458;-51
2022/04/28 04:40:20;;;;;;;11.77;7.32;;;;;;;7.31;67.79;102956.19;5068288;28;20516;-51
2022/04/28 04:42:45;;;;;;;15.77;6.95;;;;;;;7.31;67.86;102958.75;5067843;28;20036;-51
2022/04/28 04:45:11;;;;;;;14.82;7.80;;;;;;;7.34;68.14;102964.06;5055324;28;20115;-52
2022/04/28 04:47:37;;;;;;;16.13;7.75;;;;;;;7.35;68.01;102973.56;5068090;28;20048;-52
2022/04/28 04:50:05;;;;;;;17.17;7.63;;;;;;;7.41;68.22;102971.44;5066814;28;20055;-51
2022/04/28 04:52:31;;;;;;;17.57;8.37;;;;;;;7.39;68.19;102984.09;5062368;28;20029;-49
2022/04/28 04:54:56;;;;;;;14.43;7.70;;;;;;;7.33;68.41;102978.53;5067545;28;20424;-50
2022/04/28 04:57:22;;;;;;;18.13;8.13;;;;;;;7.34;68.26;102980.34;5065110;28;20036;-51
2022/04/28 04:59:47;;;;;;;16.92;8.30;;;;;;;7.30;68.69;102980.88;5060455;28;20209;-52
2022/04/28 05:02:13;;;;;;;17.58;7.57;;;;;;;7.28;68.50;102979.88;5064295;28;20052;-51
2022/04/28 05:04:38;;;;;;;17.10;7.95;;;;;;;7.27;68.64;102988.31;5061202;28;20074;-50
2022/04/28 05:07:04;;;;;;;19.45;8.73;;;;;;;7.33;68.47;102983.66;5067194;28;20032;-51
2022/04/28 05:09:29;;;;;;;18.08;8.02;;;;;;;7.33;68.67;102978.53;5068108;28;20046;-49
2022/04/28 05:11:54;;;;;;;15.98;8.57;;;;;;;7.33;68.35;102983.66;5065778;28;20043;-51
2022/04/28 05:14:20;;;;;;;18.25;8.65;;;;;;;7.40;68.11;102985.91;5066526;28;20041;-51
2022/04/28 05:16:45;;;;;;;21.45;8.65;;;;;;;7.38;68.41;102987.44;5062611;28;20060;-51
2022/04/28 05:19:11;;;;;;;18.92;8.23;;;;;;;7.35;68.60;102992.34;5066304;28;20033;-50
2022/04/28 05:21:36;;;;;;;17.88;8.52;;;;;;;7.34;68.65;102994.78;5067101;28;20032;-51
2022/04/28 05:24:01;;;;;;;17.50;7.75;;;;;;;7.42;68.51;102999.72;5065766;28;20036;-51
2022/04/28 05:26:27;;;;;;;16.77;8.40;;;;;;;7.47;68.59;102998.41;5067606;28;20322;-51
2022/04/28 05:28:52;;;;;;;14.55;8.48;;;;;;;7.45;68.26;102996.47;5068506;28;20060;-52
2022/04/28 05:31:17;;;;;;;18.40;9.35;;;;;;;7.46;68.74;103006.84;5065078;28;20064;-52
2022/04/28 05:33:43;;;;;;;16.63;9.02;;;;;;;7.45;68.80;103005.03;5064825;28;20091;-51
2022/04/28 05:36:10;;;;;;;21.48;9.32;;;;;;;7.46;68.83;103011.06;5061526;28;20056;-49
2022/04/28 05:38:39;;;;;;;22.85;9.05;;;;;;;7.49;69.16;103011.31;5065821;28;20052;-51
2022/04/28 05:41:05;;;;;;;;;;;;;;;7.67;68.18;103010.09;5068949;28;20119;-48
2022/04/28 05:46:17;;;;;;;16.92;8.50;;;;;;;7.67;68.88;103022.03;5066959;28;20048;-51
2022/04/28 05:48:42;;;;;;;18.48;9.18;;;;;;;7.74;69.17;103026.81;5068077;28;20052;-49
2022/04/28 05:51:08;;;;;;;21.42;9.73;;;;;;;7.81;68.49;103026.47;5068150;28;20098;-52
2022/04/28 05:53:34;;;;;;;19.20;9.60;;;;;;;7.90;68.28;103031.41;5065468;28;20043;-51
2022/04/28 05:55:59;;;;;;;16.23;9.30;;;;;;;7.97;67.95;103033.63;5065078;28;20492;-46
2022/04/28 05:58:25;;;;;;;18.10;9.32;;;;;;;8.02;67.94;103038.31;5069602;28;20546;-52
2022/04/28 06:00:51;;;;;;;18.85;9.45;;;;;;;8.17;67.83;103042.75;5064454;28;20040;-50
2022/04/28 06:03:16;;;;;;;24.30;10.10;;;;;;;8.27;67.47;103034.97;5066687;28;20496;-52
2022/04/28 06:05:42;;;;;;;22.15;10.02;;;;;;;8.32;67.20;103025.94;5063009;28;20024;-52
2022/04/28 06:08:07;;;;;;;15.45;9.27;;;;;;;8.45;66.95;103036.31;5061423;28;20043;-51
2022/04/28 06:10:32;;;;;;;18.23;9.85;;;;;;;8.56;66.86;103043.09;5062533;28;20033;-49
2022/04/28 06:12:58;;;;;;;19.50;9.40;;;;;;;8.70;66.53;103054.31;5062413;28;20032;-52
2022/04/28 06:15:23;;;;;;;22.15;10.23;;;;;;;8.78;66.38;103050.59;5059857;28;20082;-48
2022/04/28 06:17:49;;;;;;;17.30;9.50;;;;;;;8.82;66.06;103054.28;5061399;28;20040;-51
2022/04/28 06:20:14;;;;;;;17.33;9.32;;;;;;;8.91;66.11;103057.47;5063845;28;20040;-51
2022/04/28 06:22:40;;;;;;;19.15;10.10;;;;;;;9.00;65.13;103060.72;5059765;28;20032;-51
2022/04/28 06:25:05;;;;;;;22.25;10.25;;;;;;;9.08;64.78;103053.53;5063268;28;20041;-52
2022/04/28 06:27:31;;;;;;;20.00;9.15;;;;;;;9.18;64.52;103053.38;5063388;28;20075;-52
2022/04/28 06:29:56;;;;;;;20.75;9.48;;;;;;;9.26;64.53;103064.16;5064564;28;20041;-52
2022/04/28 06:32:22;;;;;;;21.02;9.70;;;;;;;9.36;64.09;103066.59;5055161;28;20021;-52
2022/04/28 06:34:48;;;;;;;16.65;9.38;;;;;;;9.49;64.09;103064.06;5061577;28;20532;-54
2022/04/28 06:37:16;;;;;;;18.52;9.10;;;;;;;9.64;63.94;103074.47;5066549;28;20039;-52
2022/04/28 06:39:42;;;;;;;18.85;9.55;;;;;;;9.73;63.23;103076.78;5065450;28;20048;-52
2022/04/28 06:42:07;;;;;;;15.80;9.25;;;;;;;9.84;62.69;103073.25;5058624;28;20051;-52
2022/04/28 06:44:33;;;;;;;16.05;8.90;;;;;;;9.86;62.32;103064.81;5066894;28;20037;-52
2022/04/28 06:46:59;;;;;;;18.70;8.38;;;;;;;9.91;62.28;103063.44;5064065;28;20036;-51
2022/04/28 06:49:24;;;;;;;19.50;9.40;;;;;;;10.06;61.83;103065.25;5066798;28;20037;-51
2022/04/28 06:51:50;;;;;;;20.08;9.02;;;;;;;10.20;62.38;103065.34;5066402;28;20847;-53
2022/04/28 06:54:15;;;;;;;16.67;8.57;;;;;;;10.39;62.08;103067.47;5066905;28;20020;-53
2022/04/28 06:56:40;;;;;;;19.70;9.18;;;;;;;10.50;60.53;103069.84;5066442;28;20119;-52
2022/04/28 06:59:06;;;;;;;19.20;8.80;;;;;;;10.61;60.18;103069.69;5064408;28;20032;-53
2022/04/28 07:01:32;;;;;;;19.48;9.23;;;;;;;10.67;59.95;103074.34;5059938;28;20032;-48
2022/04/28 07:03:57;;;;;;;21.05;8.55;;;;;;;10.78;59.18;103085.31;5061880;28;20037;-53
2022/04/28 07:06:23;;;;;;;17.55;8.27;;;;;;;10.94;59.01;103086.38;5066346;28;20460;-52
2022/04/28 07:08:48;;;;;;;22.70;8.18;;;;;;;11.08;59.05;103086.31;5063912;28;20477;-53
2022/04/28 07:11:13;;;;;;;19.02;8.50;;;;;;;11.19;58.65;103093.91;5065326;28;20024;-52
2022/04/28 07:13:39;;;;;;;18.52;8.25;;;;;;;11.26;58.02;103090.91;5061675;28;20060;-53
2022/04/28 07:16:05;;;;;;;21.58;8.57;;;;;;;11.34;56.97;103093.03;5062516;28;20112;-52
2022/04/28 07:18:30;;;;;;;19.15;8.23;;;;;;;11.31;56.78;103091.19;5066380;28;20483;-53
2022/04/28 07:20:58;;;;;;;20.00;8.18;;;;;;;11.42;57.44;103097.88;5059518;28;20032;-52
2022/04/28 07:23:23;;;;;;;22.55;8.07;;;;;;;11.54;57.65;103103.75;5064891;28;20493;-52
2022/04/28 07:25:49;;;;;;;17.90;8.88;;;;;;;11.53;56.54;103101.09;5067531;28;20101;-51
2022/04/28 07:28:14;;;;;;;18.30;8.40;;;;;;;11.53;56.92;103102.00;5059621;28;20035;-52
2022/04/28 07:30:40;;;;;;;18.58;8.43;;;;;;;11.48;56.57;103111.13;5067190;28;20029;-52
2022/04/28 07:33:06;;;;;;;15.23;7.53;;;;;;;11.59;56.69;103104.03;5066285;28;20029;-52
2022/04/28 07:35:32;;;;;;;14.10;7.55;;;;;;;11.68;56.90;103111.41;5060585;28;20048;-52
2022/04/28 07:37:57;;;;;;;18.30;8.20;;;;;;;11.71;55.95;103109.00;5065296;28;20136;-51
2022/04/28 07:40:23;;;;;;;19.30;8.25;;;;;;;11.77;56.37;103112.88;5062949;28;20115;-51
2022/04/28 07:42:48;;;;;;;18.23;8.77;;;;;;;11.86;56.12;103117.69;5064418;28;20036;-51
2022/04/28 07:45:13;;;;;;;13.30;8.05;;;;;;;12.01;56.00;103109.94;5064426;28;20485;-52
2022/04/28 07:47:39;;;;;;;18.30;8.82;;;;;;;12.13;56.50;103113.22;5068798;28;20036;-52
2022/04/28 07:50:05;;;;;;;20.40;8.30;;;;;;;12.19;55.09;103111.00;5066576;28;20033;-52
2022/04/28 07:52:30;;;;;;;15.05;8.20;;;;;;;12.28;54.84;103120.97;5066591;28;20403;-51
2022/04/28 07:54:56;;;;;;;18.58;8.25;;;;;;;12.32;54.85;103118.66;5068592;28;20026;-53
2022/04/28 07:57:23;;;;;;;20.40;7.75;;;;;;;12.48;55.00;103122.97;5069714;28;20062;-50
2022/04/28 07:59:49;;;;;;;15.50;8.02;;;;;;;12.56;54.91;103124.31;5065473;28;20025;-50
2022/04/28 08:02:15;;;;;;;19.30;8.30;;;;;;;12.58;54.55;103126.97;5069082;28;20044;-51
2022/04/28 08:04:41;;;;;;;20.50;8.55;;;;;;;12.49;53.84;103127.34;5064952;28;20786;-52
2022/04/28 08:07:06;;;;;;;20.92;9.25;;;;;;;12.69;55.49;103115.56;5068215;28;20036;-53
2022/04/28 08:09:32;;;;;;;20.50;8.95;;;;;;;12.81;54.29;103129.16;5067476;28;20074;-52
2022/04/28 08:11:57;;;;;;;16.83;8.85;;;;;;;12.82;53.64;103132.59;5062608;28;20501;-53
2022/04/28 08:14:26;;;;;;;18.42;8.85;;;;;;;12.94;53.58;103134.97;5069809;28;20027;-52
2022/04/28 08:16:55;;;;;;;17.30;7.75;;;;;;;13.03;52.44;103136.34;5066635;28;20484;-52
2022/04/28 08:19:21;;;;;;;17.75;7.50;;;;;;;13.06;51.98;103139.09;5069967;28;20044;-46
2022/04/28 08:21:50;;;;;;;17.05;7.65;;;;;;;13.15;52.01;103146.44;5064013;28;20459;-53
2022/04/28 08:24:16;;;;;;;15.15;7.60;;;;;;;13.17;52.19;103151.72;5066707;28;20078;-53
2022/04/28 08:26:41;;;;;;;15.25;7.10;;;;;;;13.20;51.59;103145.00;5079154;28;20048;-53
2022/04/28 08:29:07;;;;;;;18.40;7.45;;;;;;;13.20;51.64;103149.28;5062982;28;20036;-53
2022/04/28 08:31:32;;;;;;;18.88;7.50;;;;;;;13.20;51.02;103150.19;5066320;28;20155;-53
2022/04/28 08:33:58;;;;;;;15.73;7.40;;;;;;;13.37;51.07;103158.88;5065658;28;20051;-49
2022/04/28 08:36:24;;;;;;;13.82;6.80;;;;;;;13.40;51.03;103151.25;5067819;28;20047;-50
2022/04/28 08:38:49;;;;;;;17.45;7.55;;;;;;;13.47;50.65;103147.31;5068889;28;20056;-53
2022/04/28 08:41:24;;;;;;;16.52;6.88;;;;;;;13.56;49.96;103147.78;5069226;28;20071;-53
2022/04/28 08:43:50;;;;;;;14.23;6.50;;;;;;;13.55;49.15;103144.31;5067848;28;20025;-53
2022/04/28 08:48:59;;;;;;;10.95;5.68;;;;;;;13.62;48.84;103150.69;5065842;28;20055;-53
2022/04/28 08:51:26;;;;;;;15.73;6.28;;;;;;;13.66;49.03;103144.88;5069522;28;20416;-53
2022/04/28 08:53:53;;;;;;;16.52;5.47;;;;;;;13.74;48.39;103150.44;5066777;28;20032;-51
2022/04/28 08:56:19;;;;;;;10.30;5.25;;;;;;;13.73;48.10;103146.09;5066478;28;20036;-53
2022/04/28 08:58:45;;;;;;;11.80;4.90;;;;;;;13.62;47.97;103148.13;5067966;28;20037;-52
2022/04/28 09:01:12;;;;;;;11.98;5.00;;;;;;;13.70;47.63;103149.38;5066109;28;20028;-52
2022/04/28 09:03:37;;;;;;;13.32;4.57;;;;;;;13.95;48.92;103152.44;5084283;28;20115;-52
2022/04/28 09:06:36;;;;;;;14.75;4.70;;;;;;;14.05;47.78;103153.78;5068347;28;20543;-53
2022/04/28 09:09:06;;;;;;;11.35;4.70;;;;;;;13.97;46.80;103156.81;5029439;28;20048;-53
2022/04/28 09:11:35;;;;;;;16.35;4.55;;;;;;;13.96;46.80;103150.75;5065225;28;20016;-53
2022/04/28 09:14:15;;;;;;;12.90;4.57;;;;;;;13.96;46.60;103155.91;5066268;28;20024;-50
2022/04/28 09:16:49;;;;;;;12.70;5.05;;;;;;;14.06;47.13;103152.97;5056369;28;20508;-51
2022/04/28 09:19:19;;;;;;;11.80;4.65;;;;;;;14.13;47.78;103144.69;5064671;28;20179;-53
2022/04/28 09:21:46;;;;;;;11.52;4.80;;;;;;;14.27;47.41;103137.63;5065059;28;20021;-52
2022/04/28 09:24:14;;;;;;;14.73;4.70;;;;;;;14.41;46.15;103141.75;5062872;28;20032;-53
2022/04/28 09:26:41;;;;;;;13.07;4.68;;;;;;;14.51;46.14;103137.97;5065515;28;20031;-52
2022/04/28 09:29:12;;;;;;;13.68;4.90;;;;;;;14.45;45.92;103141.13;5063320;28;20024;-53
2022/04/28 09:31:38;;;;;;;9.70;5.13;;;;;;;14.45;45.54;103137.63;5064506;28;20024;-53
2022/04/28 09:34:10;;;;;;;10.15;5.15;;;;;;;14.52;46.15;103136.25;5068489;28;20031;-50
2022/04/28 09:36:37;;;;;;;10.75;5.00;;;;;;;14.57;45.77;103134.78;5061335;28;20481;-52
2022/04/28 09:39:03;;;;;;;14.70;4.90;;;;;;;14.63;45.13;103135.06;5065170;28;20579;-53
2022/04/28 09:44:13;;;;;;;12.10;4.78;;;;;;;14.64;44.82;103124.78;5065152;28;20043;-53
2022/04/28 09:46:46;;;;;;;12.65;4.63;;;;;;;14.65;44.40;103130.84;5064141;28;20032;-48
2022/04/28 09:49:14;;;;;;;8.68;4.80;;;;;;;14.74;44.68;103129.59;5062056;28;20511;-46
2022/04/28 09:51:41;;;;;;;13.85;5.07;;;;;;;14.87;44.50;103131.06;5059263;28;20481;-49
2022/04/28 09:54:09;;;;;;;8.63;4.50;;;;;;;14.93;44.29;103131.34;5063596;28;20275;-49
2022/04/28 09:56:37;;;;;;;14.95;5.25;;;;;;;14.99;44.02;103121.25;5066308;28;20147;-47
2022/04/28 09:59:05;;;;;;;11.85;4.75;;;;;;;15.11;44.93;103126.09;5065811;28;20040;-50
2022/04/28 10:01:34;;;;;;;12.80;5.05;;;;;;;15.23;43.49;103120.59;5065147;28;20035;-49
2022/04/28 10:03:59;;;;;;;;;;;;;;;15.41;44.03;103116.22;5066994;28;20024;-50
2022/04/28 10:06:25;;;;;;;13.00;5.15;;;;;;;15.45;44.23;103123.28;5067777;28;19927;-48
2022/04/28 10:08:56;;;;;;;11.73;5.28;;;;;;;15.50;43.47;103115.72;5066766;28;20036;-49
2022/04/28 10:11:24;;;;;;;12.52;5.45;;;;;;;15.54;43.03;103108.16;5063856;28;20091;-48
2022/04/28 10:13:51;;;;;;;14.57;5.35;;;;;;;15.71;43.23;103110.59;5067972;28;20023;-49
2022/04/28 10:16:19;;;;;;;8.45;5.32;;;;;;;15.75;43.62;103102.13;5063532;28;20961;-49
2022/04/28 10:19:01;;;;;;;13.07;6.03;;;;;;;15.90;43.28;103102.78;5061752;28;20060;-48
2022/04/28 10:21:38;;;;;;;15.40;5.43;;;;;;;15.91;42.86;103104.56;5065214;28;20044;-48
2022/04/28 10:32:57;;;;;;;14.25;5.05;;;;;;;16.38;43.23;103100.44;5062324;28;20054;-50
2022/04/28 10:35:46;;;;;;;12.63;5.30;;;;;;;16.50;42.54;103103.50;5061237;28;20031;-49
2022/04/28 10:38:34;;;;;;;15.27;5.65;;;;;;;16.66;42.49;103091.97;5062747;28;20057;-49
2022/04/28 10:41:07;;;;;;;13.13;5.22;;;;;;;16.58;41.38;103107.28;5063146;28;20037;-49
2022/04/28 10:43:33;;;;;;;10.98;5.65;;;;;;;16.69;41.20;103099.91;5065740;28;20036;-50
2022/04/28 10:45:59;;;;;;;9.93;5.82;;;;;;;16.59;40.52;103095.19;5067456;28;20098;-50
2022/04/28 10:48:33;;;;;;;11.63;5.47;;;;;;;16.72;40.63;103084.44;5077806;28;20039;-50
2022/04/28 10:51:15;;;;;;;12.25;5.72;;;;;;;16.89;41.23;103079.91;5063483;28;20439;-49
2022/04/28 10:54:16;;;;;;;9.25;5.30;;;;;;;17.22;41.75;103087.16;5063273;28;20036;-50
2022/04/28 10:56:45;;;;;;;12.88;5.90;;;;;;;17.45;40.11;103086.25;5065434;28;20028;-50
2022/04/28 10:59:29;;;;;;;12.50;6.45;;;;;;;17.57;39.93;103080.59;5064900;28;20032;-49
2022/04/28 11:02:21;;;;;;;12.35;5.30;;;;;;;17.82;40.39;103079.75;5066807;28;20056;-52
2022/04/28 11:04:50;;;;;;;11.60;6.03;;;;;;;18.05;39.70;103083.09;5054860;28;20500;-53
2022/04/28 11:07:24;;;;;;;14.73;6.60;;;;;;;17.93;37.60;103087.06;5062781;28;20028;-51
2022/04/28 11:10:13;;;;;;;10.48;7.10;;;;;;;18.09;38.61;103072.84;5066132;28;20020;-52
2022/04/28 11:12:43;;;;;;;12.80;6.32;;;;;;;18.30;38.29;103076.97;5063378;28;20021;-51
2022/04/28 11:15:13;;;;;;;13.93;6.65;;;;;;;18.14;37.28;103068.69;5070846;28;20036;-50
2022/04/28 11:17:44;;;;;;;14.13;7.00;;;;;;;18.06;37.32;103061.44;5069175;28;20051;-52
2022/04/28 11:20:12;;;;;;;13.15;6.55;;;;;;;18.07;37.37;103064.09;5068028;28;20495;-51
2022/04/28 11:22:41;;;;;;;13.90;6.15;;;;;;;18.22;38.68;103064.59;5071993;28;20021;-50
2022/04/28 11:25:12;;;;;;;14.10;6.03;;;;;;;18.34;37.79;103073.63;5068982;28;20036;-51
2022/04/28 11:27:38;;;;;;;12.07;6.32;;;;;;;18.35;37.47;103064.97;5070042;28;20029;-51
2022/04/28 11:30:05;;;;;;;10.40;5.60;;;;;;;18.50;37.91;103070.63;5068590;28;20043;-49
2022/04/28 11:32:30;;;;;;;12.98;6.45;;;;;;;18.68;37.61;103066.00;5070761;28;20477;-52
2022/04/28 11:34:57;;;;;;;11.18;5.60;;;;;;;19.05;37.03;103069.69;5068779;28;21287;-50
2022/04/28 11:37:24;;;;;;;15.98;6.32;;;;;;;19.28;36.74;103057.28;5067074;28;20040;-51
2022/04/28 11:39:53;;;;;;;13.60;5.90;;;;;;;19.17;36.33;103070.03;5067364;28;20183;-50
2022/04/28 11:42:19;;;;;;;10.43;6.82;;;;;;;19.00;35.53;103066.97;5069465;28;20511;-49
2022/04/28 11:44:44;;;;;;;12.32;5.90;;;;;;;18.87;36.17;103064.84;5064320;28;20154;-49
2022/04/28 11:47:10;;;;;;;14.18;6.20;;;;;;;19.03;36.76;103060.94;5066804;28;20115;-49
2022/04/28 11:49:39;;;;;;;8.93;5.80;;;;;;;18.85;36.90;103056.09;5065561;28;20020;-49
2022/04/28 11:52:44;;;;;;;12.43;6.82;;;;;;;18.68;36.66;103059.91;5060531;28;20059;-50
2022/04/28 11:55:11;;;;;;;14.43;6.10;;;;;;;18.28;37.89;103055.22;5066523;28;20473;-52
2022/04/28 11:57:39;;;;;;;11.02;6.60;;;;;;;18.09;37.90;103054.63;5067191;28;20526;-50